createdAt,value
2024-05-09T00:00:38.000Z,12.2
2024-05-09T00:01:54.000Z,12.2
2024-05-09T00:03:10.599Z,12.2
2024-05-09T00:04:26.000Z,12.1
2024-05-09T00:05:25.002Z,12.1
2024-05-09T00:06:59.000Z,12
2024-05-09T00:07:57.390Z,12
2024-05-09T00:09:31.570Z,12
2024-05-09T00:10:46.793Z,12
2024-05-09T00:12:03.000Z,11.9
2024-05-09T00:13:19.168Z,11.9
2024-05-09T00:14:35.000Z,11.9
2024-05-09T00:15:51.561Z,11.8
2024-05-09T00:17:07.742Z,11.8
2024-05-09T00:18:23.000Z,11.8
2024-05-09T00:19:40.000Z,11.7
2024-05-09T00:20:56.327Z,11.6
2024-05-09T00:22:12.000Z,11.6
2024-05-09T00:23:28.000Z,11.6
2024-05-09T00:24:44.914Z,11.6
2024-05-09T00:26:01.000Z,11.6
2024-05-09T00:27:17.309Z,11.6
2024-05-09T00:28:33.485Z,11.5
2024-05-09T00:29:49.000Z,11.5
2024-05-09T00:31:05.888Z,11.4
2024-05-09T00:32:21.094Z,11.4
2024-05-09T00:33:37.000Z,11.3
2024-05-09T00:34:53.486Z,11.3
2024-05-09T00:36:09.680Z,11.3
2024-05-09T00:37:25.858Z,11.3
2024-05-09T00:38:42.064Z,11.2
2024-05-09T00:39:58.000Z,11.2
2024-05-09T00:41:14.000Z,11.1
2024-05-09T00:42:30.000Z,11.1
2024-05-09T00:43:28.842Z,11.1
2024-05-09T00:45:03.016Z,11.1
2024-05-09T00:46:01.229Z,11.1
2024-05-09T00:47:35.404Z,11.1
2024-05-09T00:48:50.000Z,11.1
2024-05-09T00:50:06.000Z,11.1
2024-05-09T00:51:23.000Z,11.1
2024-05-09T00:52:39.000Z,11.1
2024-05-09T00:53:55.393Z,11
2024-05-09T00:55:11.000Z,11
2024-05-09T00:57:03.000Z,11
2024-05-09T00:57:44.000Z,11
2024-05-09T00:58:42.180Z,11
2024-05-09T01:00:16.000Z,11
2024-05-09T01:01:32.000Z,11
2024-05-09T01:02:48.000Z,11
2024-05-09T01:04:04.954Z,11
2024-05-09T01:05:21.135Z,11
2024-05-09T01:06:36.338Z,11
2024-05-09T01:07:52.540Z,11
2024-05-09T01:08:50.743Z,11
2024-05-09T01:10:24.000Z,10.9
2024-05-09T01:11:23.130Z,10.9
2024-05-09T01:12:57.000Z,10.9
2024-05-09T01:14:13.000Z,11
2024-05-09T01:15:29.000Z,10.9
2024-05-09T01:16:27.905Z,10.9
2024-05-09T01:18:02.000Z,10.9
2024-05-09T01:19:18.000Z,10.9
2024-05-09T01:20:34.476Z,10.9
2024-05-09T01:21:50.675Z,10.9
2024-05-09T01:23:05.000Z,10.8
2024-05-09T01:24:22.063Z,10.8
2024-05-09T01:25:38.254Z,10.8
2024-05-09T01:26:54.000Z,10.8
2024-05-09T01:28:10.000Z,10.8
2024-05-09T01:29:26.848Z,10.8
2024-05-09T01:30:43.000Z,10.7
2024-05-09T01:31:59.225Z,10.7
2024-05-09T01:33:15.424Z,10.8
2024-05-09T01:34:31.000Z,10.8
2024-05-09T01:35:47.000Z,10.8
2024-05-09T01:36:46.012Z,10.8
2024-05-09T01:38:20.000Z,10.7
2024-05-09T01:39:36.000Z,10.7
2024-05-09T01:40:52.586Z,10.7
2024-05-09T01:42:07.804Z,10.7
2024-05-09T01:43:23.999Z,10.7
2024-05-09T01:44:40.000Z,10.7
2024-05-09T01:45:56.000Z,10.7
2024-05-09T01:46:54.580Z,10.7
2024-05-09T01:48:28.762Z,10.7
2024-05-09T01:49:44.957Z,10.7
2024-05-09T01:51:01.000Z,10.6
2024-05-09T01:52:17.000Z,10.6
2024-05-09T01:53:33.000Z,10.6
2024-05-09T01:54:49.000Z,10.6
2024-05-09T01:56:05.920Z,10.6
2024-05-09T01:57:22.118Z,10.6
2024-05-09T01:58:37.335Z,10.5
2024-05-09T01:59:53.523Z,10.5
2024-05-09T02:01:09.719Z,10.5
2024-05-09T02:02:07.914Z,10.5
2024-05-09T02:03:42.000Z,10.5
2024-05-09T02:04:58.000Z,10.5
2024-05-09T02:06:14.000Z,10.5
2024-05-09T02:07:12.687Z,10.5
2024-05-09T02:08:46.880Z,10.4
2024-05-09T02:09:45.073Z,10.4
2024-05-09T02:11:19.266Z,10.4
2024-05-09T02:12:35.441Z,10.4
2024-05-09T02:13:51.647Z,10.3
2024-05-09T02:14:49.846Z,10.3
2024-05-09T02:16:23.000Z,10.3
2024-05-09T02:17:39.000Z,10.3
2024-05-09T02:18:55.000Z,10.3
2024-05-09T02:19:53.636Z,10.3
2024-05-09T02:21:27.000Z,10.2
2024-05-09T02:22:44.006Z,10.2
2024-05-09T02:24:00.197Z,10.2
2024-05-09T02:24:58.408Z,10.2
2024-05-09T02:26:32.000Z,10.2
2024-05-09T02:27:30.795Z,10.2
2024-05-09T02:29:04.985Z,10.2
2024-05-09T02:30:57.000Z,10.2
2024-05-09T02:31:37.000Z,10.2
2024-05-09T02:32:35.568Z,10.2
2024-05-09T02:34:09.751Z,10.1
2024-05-09T02:36:00.000Z,10.1
2024-05-09T02:36:41.156Z,10.1
2024-05-09T02:37:57.338Z,10.1
2024-05-09T02:39:13.000Z,10.1
2024-05-09T02:40:29.725Z,10.1
2024-05-09T02:41:45.927Z,10.1
2024-05-09T02:43:02.129Z,10
2024-05-09T02:44:18.318Z,10
2024-05-09T02:45:16.515Z,10
2024-05-09T02:46:50.000Z,10
2024-05-09T02:48:06.883Z,10
2024-05-09T02:49:23.083Z,10
2024-05-09T02:50:39.000Z,10
2024-05-09T02:51:55.000Z,10
2024-05-09T02:53:11.655Z,10
2024-05-09T02:54:26.000Z,9.9
2024-05-09T02:55:43.000Z,9.9
2024-05-09T02:56:59.249Z,9.9
2024-05-09T02:58:15.447Z,9.9
2024-05-09T02:59:31.641Z,9.9
2024-05-09T03:00:47.000Z,9.9
2024-05-09T03:02:04.000Z,9.9
2024-05-09T03:03:02.231Z,9.8
2024-05-09T03:04:36.412Z,9.8
2024-05-09T03:05:34.619Z,9.8
2024-05-09T03:07:08.797Z,9.8
2024-05-09T03:08:25.000Z,9.7
2024-05-09T03:09:41.000Z,9.7
2024-05-09T03:10:39.396Z,9.6
2024-05-09T03:12:13.000Z,9.6
2024-05-09T03:13:11.785Z,9.6
2024-05-09T03:14:44.985Z,9.5
2024-05-09T03:16:01.182Z,9.5
2024-05-09T03:17:17.000Z,9.5
2024-05-09T03:18:15.581Z,9.5
2024-05-09T03:19:49.000Z,9.5
2024-05-09T03:21:05.000Z,9.5
2024-05-09T03:22:22.000Z,9.4
2024-05-09T03:23:38.347Z,9.4
2024-05-09T03:24:54.000Z,9.4
2024-05-09T03:26:10.737Z,9.4
2024-05-09T03:27:26.935Z,9.4
2024-05-09T03:28:43.125Z,9.4
2024-05-09T03:29:59.000Z,9.4
2024-05-09T03:31:15.508Z,9.4
2024-05-09T03:32:30.000Z,9.4
2024-05-09T03:33:46.932Z,9.4
2024-05-09T03:35:03.000Z,9.4
2024-05-09T03:36:19.000Z,9.4
2024-05-09T03:37:35.000Z,9.4
2024-05-09T03:38:51.699Z,9.4
2024-05-09T03:40:07.000Z,9.4
2024-05-09T03:41:24.093Z,9.4
2024-05-09T03:42:40.000Z,9.3
2024-05-09T03:43:38.493Z,9.4
2024-05-09T03:45:12.000Z,9.4
2024-05-09T03:46:28.000Z,9.4
2024-05-09T03:47:45.000Z,9.4
2024-05-09T03:48:43.273Z,9.4
2024-05-09T03:50:17.458Z,9.4
2024-05-09T03:51:14.680Z,9.4
2024-05-09T03:52:48.000Z,9.4
2024-05-09T03:54:05.060Z,9.4
2024-05-09T03:55:21.000Z,9.5
2024-05-09T03:56:37.444Z,9.5
2024-05-09T03:57:53.645Z,9.5
2024-05-09T03:59:09.000Z,9.5
2024-05-09T04:00:26.030Z,9.4
2024-05-09T04:02:18.000Z,9.4
2024-05-09T04:02:58.000Z,9.4
2024-05-09T04:04:14.614Z,9.5
2024-05-09T04:05:30.816Z,9.5
2024-05-09T04:06:47.000Z,9.5
2024-05-09T04:08:02.000Z,9.4
2024-05-09T04:09:00.427Z,9.4
2024-05-09T04:10:34.000Z,9.4
2024-05-09T04:11:50.000Z,9.4
2024-05-09T04:13:06.996Z,9.4
2024-05-09T04:14:23.000Z,9.4
2024-05-09T04:15:39.390Z,9.4
2024-05-09T04:16:55.000Z,9.5
2024-05-09T04:18:11.794Z,9.5
2024-05-09T04:19:27.989Z,9.5
2024-05-09T04:20:44.167Z,9.5
2024-05-09T04:21:42.379Z,9.4
2024-05-09T04:23:16.000Z,9.4
2024-05-09T04:24:32.000Z,9.4
2024-05-09T04:25:48.000Z,9.4
2024-05-09T04:26:47.159Z,9.4
2024-05-09T04:28:21.000Z,9.4
2024-05-09T04:29:36.543Z,9.5
2024-05-09T04:30:52.743Z,9.5
2024-05-09T04:31:50.953Z,9.5
2024-05-09T04:33:25.000Z,9.6
2024-05-09T04:34:23.343Z,9.6
2024-05-09T04:35:57.526Z,9.6
2024-05-09T04:37:13.000Z,9.7
2024-05-09T04:38:29.000Z,9.7
2024-05-09T04:39:46.105Z,9.7
2024-05-09T04:41:02.000Z,9.7
2024-05-09T04:42:00.514Z,9.7
2024-05-09T04:43:34.000Z,9.8
2024-05-09T04:44:32.904Z,9.8
2024-05-09T04:46:06.000Z,9.8
2024-05-09T04:47:04.307Z,9.8
2024-05-09T04:48:38.000Z,9.9
2024-05-09T04:49:54.000Z,9.8
2024-05-09T04:51:10.887Z,9.8
2024-05-09T04:52:27.000Z,9.8
2024-05-09T04:53:43.000Z,9.9
2024-05-09T04:54:59.462Z,9.9
2024-05-09T04:56:15.673Z,10
2024-05-09T04:57:31.857Z,9.9
2024-05-09T04:58:48.000Z,9.9
2024-05-09T05:00:04.246Z,9.9
2024-05-09T05:01:20.000Z,9.9
2024-05-09T05:02:36.000Z,10
2024-05-09T05:03:52.000Z,10
2024-05-09T05:05:09.023Z,10.1
2024-05-09T05:06:24.000Z,10.1
2024-05-09T05:07:22.442Z,10.1
2024-05-09T05:08:56.000Z,10.2
2024-05-09T05:10:12.815Z,10.2
2024-05-09T05:11:29.000Z,10.2
2024-05-09T05:12:27.223Z,10.2
2024-05-09T05:14:01.000Z,10.2
2024-05-09T05:15:17.000Z,10.2
2024-05-09T05:16:33.000Z,10.2
2024-05-09T05:17:50.000Z,10.2
2024-05-09T05:19:06.200Z,10.2
2024-05-09T05:20:58.000Z,10.3
2024-05-09T05:21:38.000Z,10.3
2024-05-09T05:22:36.785Z,10.3
2024-05-09T05:24:10.972Z,10.3
2024-05-09T05:25:27.000Z,10.4
2024-05-09T05:26:42.000Z,10.4
2024-05-09T05:27:58.000Z,10.4
2024-05-09T05:29:14.000Z,10.5
2024-05-09T05:30:30.000Z,10.5
2024-05-09T05:31:47.000Z,10.5
2024-05-09T05:33:03.000Z,10.6
2024-05-09T05:34:19.000Z,10.6
2024-05-09T05:35:35.000Z,10.7
2024-05-09T05:36:51.000Z,10.7
2024-05-09T05:37:50.146Z,10.7
2024-05-09T05:39:24.000Z,10.7
2024-05-09T05:40:40.000Z,10.7
2024-05-09T05:41:56.000Z,10.7
2024-05-09T05:43:12.000Z,10.8
2024-05-09T05:44:29.000Z,10.8
2024-05-09T05:45:45.318Z,10.8
2024-05-09T05:47:01.497Z,10.8
2024-05-09T05:47:59.710Z,10.9
2024-05-09T05:49:32.000Z,10.9
2024-05-09T05:50:49.000Z,10.9
2024-05-09T05:52:05.307Z,11
2024-05-09T05:53:21.000Z,11
2024-05-09T05:55:13.000Z,11
2024-05-09T05:55:35.898Z,11.1
2024-05-09T05:57:10.000Z,11.2
2024-05-09T05:58:26.000Z,11.2
2024-05-09T05:59:41.502Z,11.2
2024-05-09T06:00:57.707Z,11.2
2024-05-09T06:02:13.000Z,11.3
2024-05-09T06:03:12.095Z,11.3
2024-05-09T06:04:46.000Z,11.3
2024-05-09T06:06:02.000Z,11.4
2024-05-09T06:07:18.000Z,11.4
2024-05-09T06:08:16.877Z,11.4
2024-05-09T06:09:51.000Z,11.4
2024-05-09T06:11:07.268Z,11.5
2024-05-09T06:12:23.000Z,11.5
2024-05-09T06:13:39.648Z,11.5
2024-05-09T06:14:55.000Z,11.5
2024-05-09T06:15:54.050Z,11.6
2024-05-09T06:17:27.000Z,11.6
2024-05-09T06:18:43.000Z,11.7
2024-05-09T06:19:59.000Z,11.7
2024-05-09T06:21:15.000Z,11.8
2024-05-09T06:23:07.000Z,11.9
2024-05-09T06:23:48.232Z,11.9
2024-05-09T06:25:04.422Z,12
2024-05-09T06:26:20.619Z,12
2024-05-09T06:28:12.000Z,12.1
2024-05-09T06:28:35.022Z,12.1
2024-05-09T06:30:09.200Z,12.1
2024-05-09T06:31:25.000Z,12.2
2024-05-09T06:32:41.000Z,12.2
2024-05-09T06:33:39.803Z,12.3
2024-05-09T06:35:14.000Z,12.3
2024-05-09T06:36:30.364Z,12.4
2024-05-09T06:37:45.580Z,12.4
2024-05-09T06:38:43.779Z,12.4
2024-05-09T06:40:17.000Z,12.5
2024-05-09T06:41:34.000Z,12.5
2024-05-09T06:42:50.364Z,12.5
2024-05-09T06:44:06.000Z,12.6
2024-05-09T06:45:22.748Z,12.6
2024-05-09T06:46:20.948Z,12.7
2024-05-09T06:47:55.136Z,12.7
2024-05-09T06:49:11.000Z,12.7
2024-05-09T06:50:27.000Z,12.8
2024-05-09T06:51:25.728Z,12.8
2024-05-09T06:52:59.913Z,12.9
2024-05-09T06:54:15.130Z,12.9
2024-05-09T06:55:31.000Z,12.9
2024-05-09T06:56:47.524Z,13
2024-05-09T06:58:03.000Z,13
2024-05-09T06:59:19.000Z,13
2024-05-09T07:00:36.107Z,13
2024-05-09T07:01:52.294Z,13
2024-05-09T07:03:08.486Z,13.1
2024-05-09T07:04:24.000Z,13.1
2024-05-09T07:05:40.000Z,13.2
2024-05-09T07:06:39.083Z,13.2
2024-05-09T07:08:13.267Z,13.3
2024-05-09T07:09:29.000Z,13.3
2024-05-09T07:10:45.000Z,13.3
2024-05-09T07:12:01.000Z,13.4
2024-05-09T07:13:18.000Z,13.5
2024-05-09T07:14:34.000Z,13.5
2024-05-09T07:15:49.454Z,13.5
2024-05-09T07:17:05.644Z,13.5
2024-05-09T07:18:21.000Z,13.6
2024-05-09T07:19:20.044Z,13.6
2024-05-09T07:20:54.000Z,13.7
2024-05-09T07:22:10.000Z,13.7
2024-05-09T07:23:26.000Z,13.8
2024-05-09T07:24:42.000Z,13.8
2024-05-09T07:25:59.000Z,13.9
2024-05-09T07:27:15.199Z,13.9
2024-05-09T07:28:31.000Z,14
2024-05-09T07:29:47.000Z,14
2024-05-09T07:31:03.793Z,14
2024-05-09T07:32:01.994Z,14
2024-05-09T07:33:35.187Z,14
2024-05-09T07:34:51.000Z,14
2024-05-09T07:36:07.000Z,13.9
2024-05-09T07:37:23.777Z,14
2024-05-09T07:38:39.979Z,14
2024-05-09T07:39:56.177Z,14.1
2024-05-09T07:41:12.000Z,14.2
2024-05-09T07:42:28.560Z,14.3
2024-05-09T07:43:44.000Z,14.4
2024-05-09T07:44:42.957Z,14.3
2024-05-09T07:46:17.136Z,14.4
2024-05-09T07:47:33.347Z,14.4
2024-05-09T07:48:49.000Z,14.5
2024-05-09T07:50:05.732Z,14.5
2024-05-09T07:51:21.932Z,14.6
2024-05-09T07:52:38.122Z,14.6
2024-05-09T07:53:53.322Z,14.7
2024-05-09T07:55:09.524Z,14.7
2024-05-09T07:56:25.000Z,14.7
2024-05-09T07:57:23.921Z,14.8
2024-05-09T07:58:58.000Z,14.8
2024-05-09T08:00:14.000Z,14.8
2024-05-09T08:01:30.000Z,14.8
2024-05-09T08:02:46.000Z,14.7
2024-05-09T08:04:02.000Z,14.7
2024-05-09T08:05:19.000Z,14.8
2024-05-09T08:06:35.000Z,14.8
2024-05-09T08:07:51.000Z,14.8
2024-05-09T08:09:07.000Z,14.9
2024-05-09T08:10:04.887Z,14.9
2024-05-09T08:11:39.000Z,14.9
2024-05-09T08:12:55.000Z,15
2024-05-09T08:14:11.000Z,15
2024-05-09T08:15:27.668Z,15.1
2024-05-09T08:16:43.000Z,15.2
2024-05-09T08:18:00.057Z,15.3
2024-05-09T08:19:16.000Z,15.3
2024-05-09T08:20:32.000Z,15.4
2024-05-09T08:21:48.000Z,15.4
2024-05-09T08:23:04.823Z,15.5
2024-05-09T08:24:21.000Z,15.5
2024-05-09T08:25:37.000Z,15.6
2024-05-09T08:26:53.421Z,15.6
2024-05-09T08:28:09.000Z,15.5
2024-05-09T08:29:25.000Z,15.5
2024-05-09T08:30:42.011Z,15.5
2024-05-09T08:31:58.197Z,15.5
2024-05-09T08:32:55.415Z,15.5
2024-05-09T08:34:29.611Z,15.5
2024-05-09T08:35:27.806Z,15.5
2024-05-09T08:37:02.000Z,15.5
2024-05-09T08:38:18.000Z,15.6
2024-05-09T08:39:34.387Z,15.7
2024-05-09T08:40:32.587Z,15.8
2024-05-09T08:42:06.777Z,15.9
2024-05-09T08:43:22.967Z,15.9
2024-05-09T08:44:39.000Z,16
2024-05-09T08:45:55.000Z,16.1
2024-05-09T08:47:47.000Z,16.2
2024-05-09T08:48:27.745Z,16.3
2024-05-09T08:49:42.000Z,16.4
2024-05-09T08:50:59.000Z,16.5
2024-05-09T08:52:15.000Z,16.5
2024-05-09T08:53:31.000Z,16.5
2024-05-09T08:54:47.000Z,16.5
2024-05-09T08:56:03.932Z,16.5
2024-05-09T08:57:20.131Z,16.5
2024-05-09T08:58:36.327Z,16.6
2024-05-09T08:59:52.535Z,16.6
2024-05-09T09:00:50.731Z,16.6
2024-05-09T09:02:24.000Z,16.6
2024-05-09T09:03:41.000Z,16.7
2024-05-09T09:05:33.000Z,16.8
2024-05-09T09:06:13.000Z,16.8
2024-05-09T09:07:29.000Z,16.8
2024-05-09T09:08:45.889Z,16.8
2024-05-09T09:10:02.000Z,16.8
2024-05-09T09:10:59.309Z,16.7
2024-05-09T09:12:33.000Z,16.7
2024-05-09T09:13:49.700Z,16.7
2024-05-09T09:15:05.000Z,16.6
2024-05-09T09:16:22.000Z,16.5
2024-05-09T09:17:38.275Z,16.5
2024-05-09T09:18:54.000Z,16.5
2024-05-09T09:20:10.000Z,16.6
2024-05-09T09:21:26.000Z,16.6
2024-05-09T09:22:43.000Z,16.6
2024-05-09T09:23:59.000Z,16.5
2024-05-09T09:25:15.462Z,16.5
2024-05-09T09:26:31.653Z,16.5
2024-05-09T09:27:47.000Z,16.6
2024-05-09T09:29:04.000Z,16.6
2024-05-09T09:30:20.000Z,16.7
2024-05-09T09:31:36.439Z,16.8
2024-05-09T09:32:52.000Z,16.8
2024-05-09T09:34:08.000Z,16.9
2024-05-09T09:36:00.000Z,17
2024-05-09T09:36:41.000Z,17.1
2024-05-09T09:37:57.000Z,17.2
2024-05-09T09:39:13.594Z,17.3
2024-05-09T09:40:28.818Z,17.5
2024-05-09T09:41:45.000Z,17.7
2024-05-09T09:43:01.000Z,18
2024-05-09T09:44:17.000Z,18.3
2024-05-09T09:45:33.605Z,18.4
2024-05-09T09:46:49.000Z,18.5
2024-05-09T09:48:06.000Z,18.6
2024-05-09T09:49:22.000Z,18.9
2024-05-09T09:50:38.387Z,19.1
2024-05-09T09:51:36.582Z,19.1
2024-05-09T09:53:10.778Z,19.2
2024-05-09T09:54:26.000Z,19.3
2024-05-09T09:55:43.162Z,19.1
2024-05-09T09:56:58.000Z,19.1
2024-05-09T09:58:14.000Z,19
2024-05-09T09:59:30.771Z,19
2024-05-09T10:00:46.967Z,19.3
2024-05-09T10:01:45.161Z,19.4
2024-05-09T10:03:19.357Z,19.5
2024-05-09T10:04:35.000Z,19.7
2024-05-09T10:05:51.732Z,19.7
2024-05-09T10:07:07.000Z,19.7
2024-05-09T10:08:24.000Z,19.5
2024-05-09T10:09:40.000Z,19.2
2024-05-09T10:10:56.000Z,19
2024-05-09T10:12:12.000Z,19
2024-05-09T10:13:28.000Z,19.2
2024-05-09T10:14:45.000Z,19.3
2024-05-09T10:16:01.000Z,19.5
2024-05-09T10:16:59.506Z,19.7
2024-05-09T10:18:32.000Z,20
2024-05-09T10:19:48.000Z,20.2
2024-05-09T10:21:05.000Z,20.4
2024-05-09T10:22:21.000Z,20.7
2024-05-09T10:23:37.000Z,20.8
2024-05-09T10:24:53.684Z,20.8
2024-05-09T10:26:09.891Z,20.5
2024-05-09T10:27:26.000Z,20.5
2024-05-09T10:28:42.286Z,20.2
2024-05-09T10:29:58.486Z,19.6
2024-05-09T10:31:14.000Z,19.6
2024-05-09T10:32:30.876Z,19.8
2024-05-09T10:33:47.069Z,19.9
2024-05-09T10:35:03.267Z,20
2024-05-09T10:36:19.456Z,20
2024-05-09T10:37:35.655Z,20.1
2024-05-09T10:38:51.000Z,20.2
2024-05-09T10:39:50.051Z,20.4
2024-05-09T10:41:24.243Z,20.4
2024-05-09T10:42:22.441Z,20.3
2024-05-09T10:43:56.000Z,20.5
2024-05-09T10:45:12.000Z,20.7
2024-05-09T10:46:29.000Z,20.7
2024-05-09T10:47:45.218Z,20.4
2024-05-09T10:49:00.000Z,20.1
2024-05-09T10:50:16.000Z,19.5
2024-05-09T10:51:32.824Z,19.4
2024-05-09T10:52:49.022Z,19.6
2024-05-09T10:54:05.000Z,19.5
2024-05-09T10:55:21.403Z,19.1
2024-05-09T10:56:37.592Z,19.2
2024-05-09T10:57:53.000Z,19.5
2024-05-09T10:59:09.981Z,19.6
2024-05-09T11:00:26.192Z,19.7
2024-05-09T11:01:42.000Z,19.9
2024-05-09T11:02:58.000Z,20.1
2024-05-09T11:04:14.000Z,20.3
2024-05-09T11:05:29.986Z,20.4
2024-05-09T11:06:46.000Z,20.4
2024-05-09T11:08:02.000Z,20.3
2024-05-09T11:09:18.000Z,20.3
2024-05-09T11:10:34.769Z,20.1
2024-05-09T11:11:50.966Z,20
2024-05-09T11:13:07.160Z,20.1
2024-05-09T11:14:23.341Z,19.9
2024-05-09T11:15:39.550Z,20.2
2024-05-09T11:16:55.000Z,20.3
2024-05-09T11:18:11.000Z,20.2
2024-05-09T11:19:28.121Z,20.1
2024-05-09T11:20:26.332Z,20.1
2024-05-09T11:23:16.000Z,20.2
2024-05-09T11:24:32.000Z,20.2
2024-05-09T11:25:49.000Z,20.2
2024-05-09T11:27:05.000Z,20.3
2024-05-09T11:28:21.493Z,20.6
2024-05-09T11:29:37.000Z,20.5
2024-05-09T11:30:53.891Z,20.4
2024-05-09T11:32:10.000Z,20.2
2024-05-09T11:33:08.286Z,20.2
2024-05-09T11:34:42.472Z,20
2024-05-09T11:35:58.000Z,19.8
2024-05-09T11:37:14.862Z,19.8
2024-05-09T11:38:31.061Z,19.8
2024-05-09T11:39:47.262Z,19.8
2024-05-09T11:41:03.000Z,19.9
2024-05-09T11:42:19.647Z,20.2
2024-05-09T11:43:35.000Z,20.3
2024-05-09T11:44:51.044Z,20.4
2024-05-09T11:46:07.000Z,20.2
2024-05-09T11:47:23.000Z,20.2
2024-05-09T11:48:39.000Z,20.2
2024-05-09T11:49:55.838Z,20.3
2024-05-09T11:51:12.000Z,20.7
2024-05-09T11:52:28.000Z,20.6
2024-05-09T11:54:20.000Z,20.4
2024-05-09T11:55:00.000Z,20.2
2024-05-09T11:55:58.820Z,20.2
2024-05-09T11:57:33.000Z,20.2
2024-05-09T11:58:49.193Z,20.2
2024-05-09T12:00:05.404Z,20.1
2024-05-09T12:01:20.000Z,20.3
2024-05-09T12:02:36.000Z,20.3
2024-05-09T12:03:53.002Z,20.4
2024-05-09T12:05:09.189Z,20.7
2024-05-09T12:06:25.402Z,20.8
2024-05-09T12:07:41.000Z,21
2024-05-09T12:08:57.000Z,21
2024-05-09T12:10:13.989Z,20.8
2024-05-09T12:11:30.169Z,20.9
2024-05-09T12:12:46.371Z,21
2024-05-09T12:14:02.000Z,20.7
2024-05-09T12:15:18.752Z,20.4
2024-05-09T12:16:34.961Z,20.5
2024-05-09T12:17:51.000Z,20.4
2024-05-09T12:19:07.000Z,20.4
2024-05-09T12:20:23.000Z,20.4
2024-05-09T12:21:39.000Z,20.7
2024-05-09T12:22:55.930Z,20.7
2024-05-09T12:23:54.139Z,20.6
2024-05-09T12:25:27.349Z,20.8
2024-05-09T12:26:43.000Z,21.1
2024-05-09T12:27:59.000Z,21.2
2024-05-09T12:28:57.936Z,21.1
2024-05-09T12:30:32.131Z,21.1
2024-05-09T12:31:48.000Z,21.2
2024-05-09T12:33:04.000Z,21.2
2024-05-09T12:34:20.716Z,21.1
2024-05-09T12:35:36.000Z,21
2024-05-09T12:36:35.106Z,20.7
2024-05-09T12:38:45.000Z,20.6
2024-05-09T12:39:25.000Z,20.6
2024-05-09T12:40:41.686Z,20.6
2024-05-09T12:41:57.000Z,20.5
2024-05-09T12:43:14.000Z,20.2
2024-05-09T12:44:29.000Z,20.1
2024-05-09T12:45:45.457Z,20.1
2024-05-09T12:47:01.000Z,20.1
2024-05-09T12:48:17.000Z,20.3
2024-05-09T12:49:16.053Z,20.4
2024-05-09T12:50:50.234Z,20.6
2024-05-09T12:52:06.000Z,20.7
2024-05-09T12:53:22.618Z,20.8
2024-05-09T12:54:38.000Z,20.9
2024-05-09T12:55:55.000Z,21
2024-05-09T12:57:11.208Z,21.1
2024-05-09T12:58:27.397Z,20.7
2024-05-09T12:59:43.582Z,20.4
2024-05-09T13:00:58.796Z,20.2
2024-05-09T13:02:15.000Z,20.2
2024-05-09T13:03:31.000Z,20.2
2024-05-09T13:04:47.000Z,20.2
2024-05-09T13:06:03.565Z,20.3
2024-05-09T13:07:19.768Z,20.3
2024-05-09T13:08:35.964Z,20.2
2024-05-09T13:09:52.155Z,20.1
2024-05-09T13:11:08.357Z,20
2024-05-09T13:12:24.542Z,20
2024-05-09T13:13:40.731Z,20
2024-05-09T13:14:56.923Z,20
2024-05-09T13:16:13.000Z,20
2024-05-09T13:17:29.000Z,20
2024-05-09T13:18:45.000Z,20.2
2024-05-09T13:20:01.698Z,20.4
2024-05-09T13:21:53.000Z,20.7
2024-05-09T13:22:33.000Z,21
2024-05-09T13:23:49.303Z,21.1
2024-05-09T13:25:05.000Z,21.2
2024-05-09T13:26:21.690Z,21.3
2024-05-09T13:27:37.883Z,21.4
2024-05-09T13:28:54.068Z,21.4
2024-05-09T13:30:10.000Z,21.4
2024-05-09T13:31:26.000Z,21.5
2024-05-09T13:32:24.657Z,21.5
2024-05-09T13:33:58.850Z,21.7
2024-05-09T13:34:57.043Z,21.8
2024-05-09T13:36:31.232Z,21.8
2024-05-09T13:37:29.430Z,21.9
2024-05-09T13:39:02.625Z,21.7
2024-05-09T13:40:00.832Z,21.6
2024-05-09T13:41:35.000Z,21.6
2024-05-09T13:42:51.000Z,21.4
2024-05-09T13:44:07.000Z,21.4
2024-05-09T13:45:23.605Z,21.5
2024-05-09T13:46:39.000Z,21.8
2024-05-09T13:47:56.000Z,21.8
2024-05-09T13:49:12.000Z,22.1
2024-05-09T13:50:28.361Z,22.2
2024-05-09T13:51:44.572Z,22.2
2024-05-09T13:52:42.765Z,22.2
2024-05-09T13:54:16.000Z,22.3
2024-05-09T13:55:33.000Z,22.5
2024-05-09T13:56:49.334Z,22.4
2024-05-09T13:58:05.000Z,22.2
2024-05-09T13:59:03.732Z,22.3
2024-05-09T14:00:36.000Z,22.2
2024-05-09T14:01:53.135Z,22.1
2024-05-09T14:03:09.000Z,22.1
2024-05-09T14:04:25.000Z,22.3
2024-05-09T14:05:41.000Z,22.4
2024-05-09T14:06:57.000Z,22.6
2024-05-09T14:08:14.000Z,22.9
2024-05-09T14:09:30.000Z,22.9
2024-05-09T14:10:46.000Z,22.9
2024-05-09T14:12:02.000Z,22.7
2024-05-09T14:13:00.877Z,22.7
2024-05-09T14:14:35.000Z,22.5
2024-05-09T14:15:51.000Z,22.3
2024-05-09T14:17:07.443Z,22.1
2024-05-09T14:18:05.651Z,22.1
2024-05-09T14:19:39.000Z,22.2
2024-05-09T14:20:56.000Z,22.3
2024-05-09T14:22:12.228Z,22.2
2024-05-09T14:23:28.412Z,22.4
2024-05-09T14:24:44.000Z,22.6
2024-05-09T14:26:00.805Z,22.3
2024-05-09T14:27:17.000Z,22.1
2024-05-09T14:28:33.185Z,22
2024-05-09T14:29:30.406Z,21.9
2024-05-09T14:30:46.599Z,21.9
2024-05-09T14:32:20.773Z,22.2
2024-05-09T14:33:36.000Z,22.5
2024-05-09T14:34:53.171Z,22.8
2024-05-09T14:35:51.372Z,23
2024-05-09T14:37:25.550Z,23
2024-05-09T14:38:22.782Z,22.9
2024-05-09T14:39:56.000Z,22.7
2024-05-09T14:40:55.169Z,22.4
2024-05-09T14:42:29.000Z,22.4
2024-05-09T14:43:45.537Z,22.6
2024-05-09T14:45:01.000Z,22.9
2024-05-09T14:46:17.000Z,23.3
2024-05-09T14:47:34.134Z,23.6
2024-05-09T14:48:50.331Z,23.6
2024-05-09T14:50:06.519Z,23.6
2024-05-09T14:51:22.717Z,23.5
2024-05-09T14:52:38.905Z,23.7
2024-05-09T14:53:55.097Z,23.8
2024-05-09T14:55:11.288Z,23.5
2024-05-09T14:56:26.000Z,23.4
2024-05-09T14:57:42.000Z,23.2
2024-05-09T14:58:58.000Z,23
2024-05-09T15:00:50.000Z,23.1
2024-05-09T15:01:13.279Z,23.4
2024-05-09T15:02:47.000Z,23.6
2024-05-09T15:04:03.000Z,23.5
2024-05-09T15:05:19.000Z,23.2
2024-05-09T15:06:36.053Z,22.9
2024-05-09T15:07:52.228Z,22.9
2024-05-09T15:09:08.000Z,23.1
2024-05-09T15:10:24.000Z,23.3
2024-05-09T15:11:40.000Z,23.6
2024-05-09T15:12:57.000Z,23.5
2024-05-09T15:14:13.000Z,23.7
2024-05-09T15:15:29.388Z,23.6
2024-05-09T15:16:44.000Z,23.3
2024-05-09T15:18:00.000Z,23.2
2024-05-09T15:19:17.000Z,23.5
2024-05-09T15:20:33.000Z,23.8
2024-05-09T15:21:49.384Z,24
2024-05-09T15:23:05.577Z,24.4
2024-05-09T15:24:21.000Z,24.6
2024-05-09T15:25:37.959Z,24.8
2024-05-09T15:26:54.161Z,24.9
2024-05-09T15:28:10.000Z,25
2024-05-09T15:29:26.542Z,25.1
2024-05-09T15:30:42.000Z,25
2024-05-09T15:31:40.936Z,24.6
2024-05-09T15:33:15.000Z,24.1
2024-05-09T15:34:12.335Z,23.8
2024-05-09T15:35:46.000Z,23.8
2024-05-09T15:37:02.000Z,23.4
2024-05-09T15:38:18.000Z,23.2
2024-05-09T15:39:17.110Z,23.5
2024-05-09T15:40:51.000Z,23.9
2024-05-09T15:42:07.000Z,24.2
2024-05-09T15:43:23.000Z,24
2024-05-09T15:44:39.869Z,24
2024-05-09T15:45:56.000Z,24.1
2024-05-09T15:47:12.000Z,23.8
2024-05-09T15:48:28.000Z,23.7
2024-05-09T15:49:44.000Z,24.1
2024-05-09T15:51:00.000Z,24.4
2024-05-09T15:52:17.000Z,24.3
2024-05-09T15:53:33.219Z,23.8
2024-05-09T15:54:48.000Z,23.5
2024-05-09T15:56:04.000Z,23.3
2024-05-09T15:57:20.818Z,23.2
2024-05-09T15:58:37.000Z,23.2
2024-05-09T15:59:35.216Z,23.4
2024-05-09T16:01:09.000Z,23.4
2024-05-09T16:02:25.000Z,23.8
2024-05-09T16:03:41.778Z,24
2024-05-09T16:04:58.000Z,23.9
2024-05-09T16:06:14.184Z,23.9
2024-05-09T16:07:30.371Z,23.7
2024-05-09T16:08:46.557Z,23.4
2024-05-09T16:10:38.000Z,23.4
2024-05-09T16:11:18.000Z,23.5
2024-05-09T16:12:35.137Z,23.3
2024-05-09T16:13:51.000Z,23.1
2024-05-09T16:15:07.539Z,22.9
2024-05-09T16:16:23.000Z,22.8
2024-05-09T16:17:39.000Z,23
2024-05-09T16:18:56.103Z,23
2024-05-09T16:20:12.300Z,23.1
2024-05-09T16:21:28.000Z,23.1
2024-05-09T16:22:44.688Z,23.2
2024-05-09T16:24:00.000Z,23
2024-05-09T16:25:17.000Z,23
2024-05-09T16:26:33.262Z,23
2024-05-09T16:27:48.490Z,22.8
2024-05-09T16:29:04.000Z,22.8
2024-05-09T16:30:20.870Z,22.8
2024-05-09T16:31:37.053Z,22.6
2024-05-09T16:32:53.261Z,22.1
2024-05-09T16:34:09.000Z,22.1
2024-05-09T16:35:25.000Z,22
2024-05-09T16:36:41.000Z,22.1
2024-05-09T16:37:58.030Z,22
2024-05-09T16:39:14.215Z,21.9
2024-05-09T16:40:30.000Z,21.8
2024-05-09T16:41:46.000Z,21.7
2024-05-09T16:43:02.000Z,21.5
2024-05-09T16:44:19.000Z,21.4
2024-05-09T16:45:35.189Z,21.5
2024-05-09T16:46:51.371Z,21.5
2024-05-09T16:48:07.000Z,21.6
2024-05-09T16:49:23.000Z,21.6
2024-05-09T16:50:21.968Z,21.5
2024-05-09T16:51:56.000Z,21.5
2024-05-09T16:53:12.000Z,21.4
2024-05-09T16:54:28.538Z,21.3
2024-05-09T16:55:43.000Z,21.3
2024-05-09T16:56:59.000Z,21.3
2024-05-09T16:58:16.136Z,21.2
2024-05-09T16:59:32.335Z,21.1
2024-05-09T17:00:48.000Z,21.2
2024-05-09T17:02:40.000Z,21.3
2024-05-09T17:03:02.915Z,21.3
2024-05-09T17:04:37.101Z,21.3
2024-05-09T17:05:53.000Z,21.2